Time;durP1;ratioP1;P1;durP2;ratioP2;P2;SDS_P1;SDS_P2;PMS_P1;PMS_P2;Temp;Humidity;BMP_temperature;BMP_pressure;BME280_temperature;BME280_humidity;BME280_pressure;Samples;Min_cycle;Max_cycle;Signal;HPM_P1;HPM_P2
2023/11/13 00:01:57;;;;;;;18.05;12.00;;;8.90;99.90;;;;;;4974683;28;20030;-88
2023/11/13 00:04:22;;;;;;;18.25;11.50;;;8.80;99.90;;;;;;4973927;28;20483;-88
2023/11/13 00:06:48;;;;;;;23.70;11.15;;;8.80;99.90;;;;;;4974125;28;20539;-88
2023/11/13 00:09:15;;;;;;;15.70;10.80;;;8.40;99.90;;;;;;4979330;28;20082;-88
2023/11/13 00:11:53;;;;;;;16.63;10.75;;;8.40;99.90;;;;;;4985259;28;20031;-88
2023/11/13 00:14:19;;;;;;;20.30;10.82;;;7.40;99.90;;;;;;4974189;28;20087;-89
2023/11/13 00:17:22;;;;;;;15.63;10.82;;;8.00;99.90;;;;;;4973779;28;20101;-88
2023/11/13 00:19:58;;;;;;;18.45;10.50;;;7.50;99.90;;;;;;4922256;28;20121;-88
2023/11/13 00:22:24;;;;;;;14.75;10.23;;;7.60;99.90;;;;;;4963024;28;20030;-88
2023/11/13 00:24:50;;;;;;;13.93;9.77;;;7.20;99.90;;;;;;4957039;28;20050;-88
2023/11/13 00:27:16;;;;;;;13.30;9.77;;;8.90;99.90;;;;;;4954958;28;20467;-88
2023/11/13 00:29:42;;;;;;;23.08;11.38;;;8.60;99.90;;;;;;4954539;28;20086;-89
2023/11/13 00:32:07;;;;;;;12.88;9.77;;;7.00;99.90;;;;;;4954177;28;20027;-88
2023/11/13 00:34:33;;;;;;;15.60;11.13;;;6.80;99.90;;;;;;4956856;28;20046;-89
2023/11/13 00:37:05;;;;;;;13.65;9.77;;;7.80;99.90;;;;;;4963471;28;20468;-88
2023/11/13 00:39:32;;;;;;;16.98;10.48;;;7.10;99.90;;;;;;4956205;28;20054;-87
2023/11/13 00:41:58;;;;;;;17.13;10.85;;;8.80;99.90;;;;;;4958553;28;20023;-88
2023/11/13 00:44:24;;;;;;;14.07;9.88;;;8.80;99.90;;;;;;4957676;28;20095;-87
2023/11/13 00:46:52;;;;;;;15.02;10.35;;;8.10;99.90;;;;;;4958527;28;20031;-89
2023/11/13 00:49:29;;;;;;;14.68;9.38;;;8.40;99.90;;;;;;4958534;28;20046;-89
2023/11/13 00:51:55;;;;;;;18.30;11.02;;;8.10;99.90;;;;;;4957874;28;20027;-89
2023/11/13 00:54:23;;;;;;;15.27;11.00;;;8.10;99.90;;;;;;4958029;28;20495;-88
2023/11/13 00:56:49;;;;;;;14.88;10.15;;;7.90;99.90;;;;;;4968168;28;20034;-89
2023/11/13 00:59:20;;;;;;;13.48;9.32;;;7.90;99.90;;;;;;4959240;28;20027;-88
2023/11/13 01:01:51;;;;;;;13.77;10.20;;;8.60;99.90;;;;;;4958192;28;20039;-88
2023/11/13 01:04:19;;;;;;;17.30;10.38;;;8.50;99.90;;;;;;4959130;28;20019;-87
2023/11/13 01:06:55;;;;;;;12.40;9.20;;;8.00;99.90;;;;;;4958393;28;20082;-87
2023/11/13 01:09:55;;;;;;;12.90;9.30;;;7.80;99.90;;;;;;4957231;28;20035;-87
2023/11/13 01:12:30;;;;;;;12.15;9.18;;;7.20;99.90;;;;;;4971879;23;20062;-88
2023/11/13 01:15:04;;;;;;;16.95;10.15;;;7.60;99.90;;;;;;4996855;28;20032;-89
2023/11/13 01:17:30;;;;;;;11.98;9.25;;;8.70;99.90;;;;;;4996382;28;20383;-89
2023/11/13 01:19:56;;;;;;;16.48;10.23;;;8.40;99.90;;;;;;4996987;28;20031;-89
2023/11/13 01:22:27;;;;;;;17.05;9.73;;;8.20;99.90;;;;;;4988245;28;20030;-88
2023/11/13 01:24:56;;;;;;;15.07;9.95;;;7.90;99.90;;;;;;4982719;28;20475;-89
2023/11/13 01:27:28;;;;;;;10.95;8.93;;;8.80;99.90;;;;;;4976351;28;20053;-88
2023/11/13 01:29:56;;;;;;;22.42;9.70;;;8.20;99.90;;;;;;4976691;28;20475;-90
2023/11/13 01:32:30;;;;;;;11.32;8.88;;;7.20;99.90;;;;;;4976824;28;20058;-90
2023/11/13 01:34:56;;;;;;;15.23;9.07;;;7.30;99.90;;;;;;4980423;28;20023;-90
2023/11/13 01:37:37;;;;;;;13.23;9.07;;;8.50;99.90;;;;;;4995618;28;20037;-90
2023/11/13 01:40:24;;;;;;;14.48;9.60;;;7.10;99.90;;;;;;4991127;28;20042;-89
2023/11/13 01:42:50;;;;;;;14.00;8.75;;;7.20;99.90;;;;;;4975975;28;20038;-90
2023/11/13 01:45:15;;;;;;;11.10;8.63;;;8.30;99.90;;;;;;4976645;28;20027;-90
2023/11/13 01:47:46;;;;;;;12.18;8.55;;;8.70;99.90;;;;;;4995186;28;20150;-89
2023/11/13 01:50:17;;;;;;;9.13;8.07;;;8.30;99.90;;;;;;4995618;28;20039;-89
2023/11/13 01:52:49;;;;;;;10.05;8.45;;;7.50;99.90;;;;;;4985666;28;20031;-89
2023/11/13 01:55:18;;;;;;;11.43;8.63;;;8.50;99.90;;;;;;4995022;28;20030;-90
2023/11/13 01:57:53;;;;;;;10.48;8.38;;;7.20;99.90;;;;;;4996373;28;20034;-90
2023/11/13 02:00:19;;;;;;;13.30;8.93;;;8.70;99.90;;;;;;4999182;28;20487;-90
2023/11/13 02:02:46;;;;;;;11.43;8.77;;;7.30;99.90;;;;;;4989409;28;20025;-90
2023/11/13 02:05:12;;;;;;;12.85;8.55;;;7.30;99.90;;;;;;4996000;28;20026;-89
2023/11/13 02:07:42;;;;;;;12.95;8.38;;;8.40;99.90;;;;;;4995292;28;20566;-90
2023/11/13 02:10:13;;;;;;;14.45;8.38;;;7.30;99.90;;;;;;4994564;28;20033;-90
2023/11/13 02:12:41;;;;;;;;;;;7.40;99.90;;;;;;4983726;28;20059;-90
2023/11/13 02:15:10;;;;;;;10.90;8.73;;;8.50;99.90;;;;;;4976317;28;19909;-89
2023/11/13 02:17:57;;;;;;;9.53;8.20;;;8.10;99.90;;;;;;4975506;28;20381;-89
2023/11/13 02:20:23;;;;;;;12.98;7.35;;;8.60;99.90;;;;;;4975832;28;20129;-89
2023/11/13 02:22:49;;;;;;;11.43;8.80;;;7.40;99.90;;;;;;4983027;28;20199;-89
2023/11/13 02:25:21;;;;;;;12.85;9.13;;;8.50;99.90;;;;;;4978001;28;20061;-90
2023/11/13 02:27:50;;;;;;;10.45;8.73;;;8.40;99.90;;;;;;4975914;28;20037;-90
2023/11/13 02:30:16;;;;;;;12.45;9.07;;;7.50;99.90;;;;;;4975088;28;20031;-90
2023/11/13 02:32:42;;;;;;;10.77;8.38;;;8.70;99.90;;;;;;4986238;28;20035;-88
2023/11/13 02:35:14;;;;;;;8.38;7.50;;;8.70;99.90;;;;;;4994018;28;20090;-89
2023/11/13 02:37:40;;;;;;;14.52;8.48;;;7.50;99.90;;;;;;4991914;28;20034;-89
2023/11/13 02:40:10;;;;;;;14.13;8.77;;;7.90;99.90;;;;;;4993986;28;20046;-89
2023/11/13 02:42:40;;;;;;;12.43;7.82;;;7.40;99.90;;;;;;4983522;28;20086;-90
2023/11/13 02:45:09;;;;;;;11.32;8.63;;;8.50;99.90;;;;;;4975543;28;20033;-90
2023/11/13 02:47:44;;;;;;;10.32;8.43;;;7.40;99.90;;;;;;4974990;28;20094;-89
2023/11/13 02:50:11;;;;;;;10.63;8.80;;;8.60;99.90;;;;;;4975669;28;20031;-90
2023/11/13 02:52:42;;;;;;;11.95;9.25;;;7.00;99.90;;;;;;4975118;28;20018;-89
2023/11/13 02:55:13;;;;;;;15.27;8.50;;;7.00;99.90;;;;;;4989617;28;20065;-90
2023/11/13 02:57:47;;;;;;;10.02;8.10;;;7.60;99.90;;;;;;4975376;28;20035;-90
2023/11/13 03:00:14;;;;;;;12.35;8.45;;;7.40;99.90;;;;;;4974965;28;20122;-90
2023/11/13 03:02:42;;;;;;;12.07;7.72;;;7.40;99.90;;;;;;4974698;28;20031;-89
2023/11/13 03:05:09;;;;;;;10.05;8.50;;;8.90;99.90;;;;;;4974651;28;20046;-90
2023/11/13 03:07:34;;;;;;;12.95;8.57;;;7.60;99.90;;;;;;4976317;28;20494;-89
2023/11/13 03:10:00;;;;;;;10.95;8.30;;;8.80;99.90;;;;;;4975470;28;20475;-90
2023/11/13 03:12:26;;;;;;;11.43;7.85;;;8.80;99.90;;;;;;4974050;28;20078;-90
2023/11/13 03:14:52;;;;;;;11.95;8.88;;;8.70;99.90;;;;;;4975044;28;20030;-90
2023/11/13 03:17:20;;;;;;;8.10;7.28;;;8.10;99.90;;;;;;4975127;28;20019;-90
2023/11/13 03:19:46;;;;;;;9.38;7.88;;;8.70;99.90;;;;;;4973753;28;20150;-89
2023/11/13 03:22:12;;;;;;;13.23;8.20;;;7.90;99.90;;;;;;4974719;28;20027;-88
2023/11/13 03:24:41;;;;;;;11.07;8.10;;;7.30;99.90;;;;;;4974688;28;20031;-90
2023/11/13 03:27:06;;;;;;;14.10;8.30;;;7.70;99.90;;;;;;4973238;28;20175;-88
2023/11/13 03:29:41;;;;;;;11.52;8.43;;;7.20;99.90;;;;;;4974679;28;20497;-91
2023/11/13 03:32:17;;;;;;;15.25;9.02;;;7.70;99.90;;;;;;4974768;28;20034;-90
2023/11/13 03:34:44;;;;;;;10.85;7.10;;;7.70;99.90;;;;;;4973752;28;20022;-90
2023/11/13 03:37:13;;;;;;;10.07;8.23;;;8.60;99.90;;;;;;4975295;28;20034;-90
2023/11/13 03:39:45;;;;;;;10.50;8.60;;;9.20;99.90;;;;;;4974766;28;20753;-90
2023/11/13 03:42:18;;;;;;;11.07;7.95;;;9.10;99.90;;;;;;4974435;28;20106;-90
2023/11/13 03:44:46;;;;;;;13.13;8.00;;;8.70;99.90;;;;;;4975085;28;20037;-90
2023/11/13 03:47:12;;;;;;;11.02;8.20;;;8.50;99.90;;;;;;4975021;28;20018;-90
2023/11/13 03:49:38;;;;;;;10.10;8.15;;;9.00;99.90;;;;;;4987501;28;20058;-90
2023/11/13 03:52:06;;;;;;;12.00;8.20;;;9.00;99.90;;;;;;4974676;28;20453;-90
2023/11/13 03:54:32;;;;;;;11.98;8.43;;;9.10;99.90;;;;;;4974004;28;20260;-90
2023/11/13 03:57:18;;;;;;;9.57;8.55;;;9.20;99.90;;;;;;4974939;28;20467;-91
2023/11/13 03:59:44;;;;;;;13.48;7.40;;;7.90;99.90;;;;;;4975034;28;20023;-90
2023/11/13 04:02:24;;;;;;;10.57;8.25;;;9.30;99.90;;;;;;4973989;28;20027;-90
2023/11/13 04:04:50;;;;;;;11.35;8.32;;;7.90;99.90;;;;;;4975452;28;20122;-90
2023/11/13 04:07:28;;;;;;;10.98;8.60;;;7.10;99.90;;;;;;4995613;28;20034;-90
2023/11/13 04:10:18;;;;;;;12.20;8.93;;;7.60;99.90;;;;;;4996663;28;20119;-89
2023/11/13 04:12:44;;;;;;;11.23;10.07;;;7.70;99.90;;;;;;4956973;28;20024;-90
2023/11/13 04:15:28;;;;;;;16.05;10.73;;;9.20;99.90;;;;;;4967569;29;20031;-89
2023/11/13 04:17:53;;;;;;;13.15;10.43;;;9.10;99.90;;;;;;4975388;29;20035;-89
2023/11/13 04:20:31;;;;;;;13.60;9.95;;;9.00;99.90;;;;;;4970368;29;20038;-90
2023/11/13 04:22:57;;;;;;;13.43;9.90;;;8.00;99.90;;;;;;4977822;28;20039;-89
2023/11/13 04:25:46;;;;;;;15.00;10.25;;;8.70;99.90;;;;;;4978885;28;20106;-90
2023/11/13 04:28:30;;;;;;;14.05;10.82;;;8.10;99.90;;;;;;4978930;28;20057;-90
2023/11/13 04:30:57;;;;;;;19.58;11.18;;;9.10;99.90;;;;;;4978144;28;20030;-90
2023/11/13 04:33:29;;;;;;;17.08;10.52;;;8.90;99.90;;;;;;4978090;28;20033;-90
2023/11/13 04:35:54;;;;;;;24.73;11.98;;;8.00;99.90;;;;;;4978883;28;20027;-90
2023/11/13 04:38:20;;;;;;;15.43;11.35;;;7.30;99.90;;;;;;4977378;28;20529;-90
2023/11/13 04:41:02;;;;;;;18.45;11.27;;;8.30;99.90;;;;;;4978235;28;20037;-90
2023/11/13 04:43:28;;;;;;;17.35;11.32;;;7.50;99.90;;;;;;4981143;28;20043;-90
2023/11/13 04:46:08;;;;;;;18.20;12.00;;;8.40;99.90;;;;;;4981732;28;20031;-90
2023/11/13 04:48:43;;;;;;;17.20;11.85;;;8.60;99.90;;;;;;4977674;28;20038;-89
2023/11/13 04:51:08;;;;;;;19.95;12.07;;;7.60;99.90;;;;;;4982777;28;20050;-90
2023/11/13 04:53:34;;;;;;;20.75;12.63;;;9.20;99.90;;;;;;4997280;28;20030;-91
2023/11/13 04:56:00;;;;;;;19.30;12.00;;;7.20;99.90;;;;;;4997649;28;20030;-90
2023/11/13 04:58:25;;;;;;;18.55;13.27;;;7.30;99.90;;;;;;4996338;28;20030;-90
2023/11/13 05:03:36;;;;;;;29.23;12.48;;;8.40;99.90;;;;;;4997491;28;20060;-90
2023/11/13 05:06:16;;;;;;;21.17;13.63;;;9.10;99.90;;;;;;4997452;28;20066;-90
2023/11/13 05:08:43;;;;;;;19.48;13.02;;;7.50;99.90;;;;;;4997719;28;20470;-90
2023/11/13 05:11:22;;;;;;;21.75;13.90;;;8.60;99.90;;;;;;4997713;28;20145;-90
2023/11/13 05:13:50;;;;;;;28.50;14.35;;;8.70;99.90;;;;;;4996411;28;20518;-90
2023/11/13 05:16:20;;;;;;;25.38;14.30;;;8.60;99.90;;;;;;4996850;28;20390;-90
2023/11/13 05:18:46;;;;;;;;;;;7.60;99.90;;;;;;4996927;28;20026;-90
2023/11/13 05:21:13;;;;;;;27.95;13.07;;;7.50;99.90;;;;;;4997140;28;19910;-89
2023/11/13 05:23:39;;;;;;;21.02;13.13;;;8.20;99.90;;;;;;4996435;28;20092;-89
2023/11/13 05:26:17;;;;;;;26.02;14.82;;;9.20;99.90;;;;;;4996005;28;20022;-90
2023/11/13 05:28:43;;;;;;;26.95;14.90;;;8.70;99.90;;;;;;4996972;28;20092;-90
2023/11/13 05:31:14;;;;;;;26.33;14.73;;;9.30;99.90;;;;;;4997213;28;20022;-90
2023/11/13 05:33:43;;;;;;;31.85;15.88;;;7.70;99.90;;;;;;4995580;28;20038;-90
2023/11/13 05:36:09;;;;;;;31.00;15.13;;;7.80;99.90;;;;;;4996390;28;20022;-89
2023/11/13 05:38:42;;;;;;;28.15;15.52;;;8.80;99.90;;;;;;5003758;28;20037;-90
2023/11/13 05:41:16;;;;;;;35.65;16.30;;;8.80;99.90;;;;;;5000585;28;20030;-90
2023/11/13 05:43:54;;;;;;;33.53;16.42;;;7.40;99.90;;;;;;5014536;28;20026;-89
2023/11/13 05:46:20;;;;;;;32.78;15.65;;;7.10;99.90;;;;;;5016785;28;20026;-90
2023/11/13 05:48:48;;;;;;;28.60;15.32;;;8.40;99.90;;;;;;5014383;28;20034;-89
2023/11/13 05:51:18;;;;;;;28.48;16.80;;;8.00;99.90;;;;;;5016576;28;20023;-89
2023/11/13 05:53:44;;;;;;;33.88;17.50;;;9.00;99.90;;;;;;4997230;28;20026;-90
2023/11/13 05:56:10;;;;;;;45.10;16.73;;;9.00;99.90;;;;;;4996036;28;20105;-90
2023/11/13 05:58:36;;;;;;;34.30;16.58;;;8.90;99.90;;;;;;4995829;28;20189;-89
2023/11/13 06:01:02;;;;;;;39.65;17.02;;;9.40;99.90;;;;;;4996026;28;20042;-89
2023/11/13 06:03:28;;;;;;;30.75;16.75;;;8.20;99.90;;;;;;4996249;28;20029;-89
2023/11/13 06:05:53;;;;;;;33.83;18.05;;;7.70;99.90;;;;;;4995798;28;20027;-89
2023/11/13 06:08:19;;;;;;;39.95;18.65;;;8.00;99.90;;;;;;4995443;28;20026;-89
2023/11/13 06:10:45;;;;;;;41.88;18.17;;;8.10;99.90;;;;;;4995376;28;20037;-89
2023/11/13 06:13:12;;;;;;;39.70;17.45;;;7.70;99.90;;;;;;4995366;28;20078;-88
2023/11/13 06:15:50;;;;;;;31.67;17.73;;;8.80;99.90;;;;;;4994844;28;20037;-91
2023/11/13 06:18:16;;;;;;;37.10;17.35;;;8.90;99.90;;;;;;4996238;28;20026;-89
2023/11/13 06:20:44;;;;;;;37.58;17.10;;;7.60;99.90;;;;;;4995418;28;20085;-88
2023/11/13 06:23:12;;;;;;;41.58;19.42;;;8.30;99.90;;;;;;4994867;28;20022;-89
2023/11/13 06:25:40;;;;;;;34.90;17.65;;;9.30;99.90;;;;;;4995289;28;20034;-90
2023/11/13 06:28:12;;;;;;;32.55;17.00;;;9.10;99.90;;;;;;4995286;28;20051;-90
2023/11/13 06:30:49;;;;;;;40.65;19.42;;;8.30;99.90;;;;;;4989157;28;20030;-89
2023/11/13 06:33:14;;;;;;;36.88;18.00;;;9.00;99.90;;;;;;4997327;28;20466;-90
2023/11/13 06:35:43;;;;;;;36.55;17.23;;;9.20;99.90;;;;;;4994145;28;20065;-90
2023/11/13 06:38:09;;;;;;;33.75;16.92;;;7.90;99.90;;;;;;4993619;28;20031;-91
2023/11/13 06:40:34;;;;;;;31.92;18.65;;;8.70;99.90;;;;;;4994223;28;20585;-90
2023/11/13 06:43:00;;;;;;;29.70;17.00;;;7.80;99.90;;;;;;4994915;28;20057;-91
2023/11/13 06:45:32;;;;;;;30.75;16.73;;;9.10;99.90;;;;;;4994631;28;20058;-90
2023/11/13 06:48:01;;;;;;;32.60;17.83;;;9.00;99.90;;;;;;4994661;28;20026;-91
2023/11/13 06:50:36;;;;;;;36.83;17.65;;;8.00;99.90;;;;;;4992544;28;20033;-90
2023/11/13 06:53:02;;;;;;;31.90;17.95;;;8.10;99.90;;;;;;4992312;28;20045;-89
2023/11/13 06:55:27;;;;;;;31.83;17.58;;;9.20;99.90;;;;;;4994093;28;20034;-89
2023/11/13 06:57:56;;;;;;;33.85;16.80;;;7.80;99.90;;;;;;4993839;28;20389;-89
2023/11/13 07:00:27;;;;;;;27.60;16.02;;;8.30;99.90;;;;;;4993913;28;20383;-88
2023/11/13 07:02:53;;;;;;;33.95;17.60;;;8.90;99.90;;;;;;4991775;28;20513;-89
2023/11/13 07:05:19;;;;;;;28.15;16.17;;;9.50;99.90;;;;;;4993932;28;20042;-90
2023/11/13 07:07:45;;;;;;;23.30;14.95;;;8.20;99.90;;;;;;4994775;28;20046;-89
2023/11/13 07:10:14;;;;;;;30.35;14.95;;;8.10;99.90;;;;;;4995342;28;20386;-91
2023/11/13 07:12:42;;;;;;;23.58;14.27;;;8.00;99.90;;;;;;4994715;28;20085;-89
2023/11/13 07:15:08;;;;;;;61.60;18.58;;;9.00;99.90;;;;;;5002909;28;20029;-90
2023/11/13 07:17:37;;;;;;;26.95;15.85;;;8.30;99.90;;;;;;5005082;28;20025;-89
2023/11/13 07:20:04;;;;;;;29.42;15.15;;;9.30;99.90;;;;;;5012909;28;20053;-90
2023/11/13 07:22:33;;;;;;;25.05;15.35;;;8.40;99.90;;;;;;5005885;28;20026;-90
2023/11/13 07:25:04;;;;;;;25.75;15.32;;;8.40;99.90;;;;;;5004673;28;20037;-91
2023/11/13 07:27:35;;;;;;;32.50;16.83;;;8.40;99.90;;;;;;5001073;28;20026;-92
2023/11/13 07:30:01;;;;;;;30.42;17.08;;;9.90;99.90;;;;;;4995778;28;20042;-89
2023/11/13 07:32:27;;;;;;;29.42;17.33;;;10.10;99.90;;;;;;4992455;28;20505;-87
2023/11/13 07:34:53;;;;;;;32.30;18.30;;;8.50;99.90;;;;;;4994510;28;20114;-91
2023/11/13 07:37:23;;;;;;;33.05;17.75;;;8.60;99.90;;;;;;4995917;28;20065;-89
2023/11/13 07:39:51;;;;;;;34.27;19.17;;;8.60;99.90;;;;;;4994141;28;20042;-90
2023/11/13 07:42:20;;;;;;;36.10;19.42;;;8.70;99.90;;;;;;4994355;28;20025;-90
2023/11/13 07:44:49;;;;;;;36.53;18.77;;;8.70;99.90;;;;;;4994018;28;20022;-90
2023/11/13 07:47:18;;;;;;;36.35;19.95;;;8.80;99.90;;;;;;4992742;28;20487;-84
2023/11/13 07:49:45;;;;;;;30.42;18.77;;;8.80;99.90;;;;;;4993028;28;20066;-90
2023/11/13 07:52:12;;;;;;;38.28;20.67;;;9.90;99.90;;;;;;4995364;28;20487;-91
2023/11/13 07:54:39;;;;;;;39.97;22.33;;;9.60;99.90;;;;;;4994458;28;20030;-92
2023/11/13 07:57:05;;;;;;;39.50;20.23;;;9.70;99.90;;;;;;4997191;28;20029;-90
2023/11/13 07:59:41;;;;;;;41.97;23.05;;;9.80;99.90;;;;;;5002128;28;20371;-89
2023/11/13 08:02:19;;;;;;;37.28;21.00;;;9.20;99.90;;;;;;5004971;28;20085;-90
2023/11/13 08:04:48;;;;;;;39.22;20.38;;;10.40;99.90;;;;;;5011449;28;20049;-91
2023/11/13 08:07:32;;;;;;;46.72;22.60;;;10.40;99.90;;;;;;4982572;28;20090;-90
2023/11/13 08:10:14;;;;;;;38.65;20.80;;;9.60;99.90;;;;;;4985254;28;20383;-90
2023/11/13 08:12:49;;;;;;;38.67;19.67;;;9.60;99.90;;;;;;4976524;28;20054;-88
2023/11/13 08:15:42;;;;;;;39.22;20.55;;;10.50;99.90;;;;;;4993037;28;20022;-91
2023/11/13 08:18:14;;;;;;;35.70;19.55;;;8.80;99.90;;;;;;4993025;28;20129;-89
2023/11/13 08:20:44;;;;;;;37.58;18.98;;;9.80;99.90;;;;;;4998603;28;20542;-86
2023/11/13 08:23:10;;;;;;;32.80;17.65;;;8.20;99.90;;;;;;4994126;28;20061;-89
2023/11/13 08:25:37;;;;;;;34.42;17.88;;;11.00;99.90;;;;;;4993534;28;20032;-85
2023/11/13 08:28:04;;;;;;;34.90;17.98;;;10.30;99.90;;;;;;4993429;28;20034;-90
2023/11/13 08:30:30;;;;;;;38.60;17.95;;;9.50;99.90;;;;;;4993018;28;20035;-91
2023/11/13 08:32:56;;;;;;;34.10;17.15;;;10.80;99.90;;;;;;4991673;28;20050;-91
2023/11/13 08:35:21;;;;;;;34.58;16.15;;;11.10;99.90;;;;;;4991957;28;20110;-90
2023/11/13 08:37:47;;;;;;;34.60;16.15;;;9.60;99.90;;;;;;4992053;28;20033;-91
2023/11/13 08:40:34;;;;;;;31.48;13.98;;;10.70;99.90;;;;;;4992566;28;20034;-90
2023/11/13 08:43:02;;;;;;;18.25;12.93;;;10.70;99.90;;;;;;4992273;28;20038;-90
2023/11/13 08:45:28;;;;;;;26.13;13.27;;;10.90;99.90;;;;;;4991996;28;20190;-90
2023/11/13 08:47:54;;;;;;;30.48;12.07;;;11.30;99.90;;;;;;4993723;28;20546;-90
2023/11/13 08:50:36;;;;;;;22.52;10.00;;;10.10;99.90;;;;;;4992816;28;20049;-91
2023/11/13 08:53:02;;;;;;;21.98;10.75;;;9.70;99.90;;;;;;4997545;28;20070;-90
2023/11/13 08:55:37;;;;;;;20.25;8.13;;;10.90;99.90;;;;;;5015120;28;20006;-89
2023/11/13 08:58:04;;;;;;;18.20;7.60;;;10.40;99.90;;;;;;5012376;28;20030;-88
2023/11/13 09:00:40;;;;;;;22.30;8.95;;;11.30;99.90;;;;;;5017034;28;20027;-90
2023/11/13 09:03:08;;;;;;;21.25;8.63;;;10.60;99.90;;;;;;5013623;28;20394;-90
2023/11/13 09:05:35;;;;;;;18.05;10.07;;;11.30;99.90;;;;;;4997171;28;20053;-90
2023/11/13 09:08:03;;;;;;;26.23;9.93;;;11.00;99.90;;;;;;4997769;28;20035;-90
2023/11/13 09:10:29;;;;;;;15.77;8.90;;;10.40;99.90;;;;;;4998776;28;20491;-90
2023/11/13 09:13:03;;;;;;;15.30;8.10;;;8.90;99.90;;;;;;4997323;28;20081;-91
2023/11/13 09:15:31;;;;;;;19.98;7.07;;;9.90;99.90;;;;;;5007001;28;20522;-91
2023/11/13 09:18:05;;;;;;;14.85;5.85;;;10.60;99.90;;;;;;4997343;28;20054;-90
2023/11/13 09:20:41;;;;;;;12.88;5.05;;;10.60;99.90;;;;;;4997698;28;20027;-91
2023/11/13 09:23:09;;;;;;;9.82;4.07;;;11.40;99.90;;;;;;4997151;28;20491;-91
2023/11/13 09:25:44;;;;;;;17.02;5.13;;;9.60;99.90;;;;;;4996023;28;20034;-90
2023/11/13 09:28:18;;;;;;;16.42;4.25;;;9.80;99.90;;;;;;4997003;28;20043;-91
2023/11/13 09:30:50;;;;;;;15.32;3.80;;;10.40;99.90;;;;;;4996761;28;20430;-91
2023/11/13 09:33:17;;;;;;;20.05;4.85;;;8.70;99.90;;;;;;4996686;28;20490;-90
2023/11/13 09:35:51;;;;;;;10.98;4.03;;;11.10;99.90;;;;;;4996947;28;20348;-91
2023/11/13 09:38:17;;;;;;;17.52;4.75;;;9.90;99.90;;;;;;4997555;28;20096;-91
2023/11/13 09:40:53;;;;;;;11.93;4.45;;;11.20;99.90;;;;;;4996436;28;20038;-91
2023/11/13 09:43:29;;;;;;;10.13;3.58;;;11.00;99.90;;;;;;4996939;28;20022;-91
2023/11/13 09:46:03;;;;;;;11.57;3.78;;;10.60;99.90;;;;;;4992665;28;20486;-90
2023/11/13 09:48:30;;;;;;;11.35;3.63;;;11.00;99.90;;;;;;4990360;23;20333;-91
2023/11/13 09:50:59;;;;;;;6.63;3.30;;;9.60;99.90;;;;;;4965938;28;20039;-88
2023/11/13 09:53:29;;;;;;;8.75;3.83;;;9.90;99.90;;;;;;4967343;28;20037;-88
2023/11/13 09:55:55;;;;;;;12.13;3.80;;;9.80;99.90;;;;;;4957326;28;20031;-89
2023/11/13 09:58:23;;;;;;;8.77;3.47;;;10.50;99.90;;;;;;4962782;28;20054;-89
2023/11/13 10:00:51;;;;;;;12.20;3.75;;;9.80;99.90;;;;;;4971823;28;20074;-90
2023/11/13 10:03:29;;;;;;;4.55;2.85;;;11.20;99.90;;;;;;4975328;28;20391;-91
2023/11/13 10:05:55;;;;;;;8.18;2.45;;;10.40;99.90;;;;;;4972221;28;20061;-90
2023/11/13 10:08:24;;;;;;;6.10;2.72;;;10.50;99.90;;;;;;4976054;28;20042;-91
2023/11/13 10:10:56;;;;;;;9.98;2.53;;;9.60;99.90;;;;;;4972961;28;20038;-89
2023/11/13 10:13:30;;;;;;;9.60;2.75;;;10.80;99.90;;;;;;4970286;28;20030;-90
2023/11/13 10:16:21;;;;;;;6.53;3.00;;;11.30;99.90;;;;;;4972857;28;20031;-90
2023/11/13 10:18:49;;;;;;;8.88;3.15;;;9.80;99.90;;;;;;4973933;28;20110;-89
2023/11/13 10:21:35;;;;;;;5.63;3.10;;;11.20;99.90;;;;;;4972202;28;20439;-92
2023/11/13 10:24:19;;;;;;;5.22;2.60;;;11.50;99.90;;;;;;4974703;28;20069;-89
2023/11/13 10:27:06;;;;;;;6.18;2.63;;;9.90;99.90;;;;;;4975006;28;20383;-91
2023/11/13 10:29:32;;;;;;;4.97;3.10;;;9.90;99.90;;;;;;4973602;28;20043;-90
2023/11/13 10:31:58;;;;;;;4.80;2.72;;;11.10;99.90;;;;;;4974521;28;20086;-89
2023/11/13 10:34:43;;;;;;;6.50;3.47;;;11.30;99.90;;;;;;4974607;28;20031;-90
2023/11/13 10:37:16;;;;;;;7.60;3.20;;;10.70;99.90;;;;;;4972431;28;20031;-89
2023/11/13 10:39:43;;;;;;;7.75;2.90;;;10.50;99.90;;;;;;4974107;28;20030;-90
2023/11/13 10:42:22;;;;;;;5.68;3.30;;;11.20;99.90;;;;;;4974035;28;20360;-89
2023/11/13 10:44:52;;;;;;;6.05;3.83;;;10.20;99.90;;;;;;4971190;28;20026;-89
2023/11/13 10:47:30;;;;;;;4.68;3.50;;;9.90;99.90;;;;;;4966881;28;20035;-91
2023/11/13 10:49:58;;;;;;;13.18;4.38;;;9.90;99.90;;;;;;4974210;28;20061;-89
2023/11/13 10:52:25;;;;;;;8.15;5.10;;;9.70;99.90;;;;;;4973325;28;20081;-89
2023/11/13 10:54:53;;;;;;;10.68;5.05;;;11.30;99.90;;;;;;4974497;28;20037;-90
2023/11/13 10:57:26;;;;;;;8.93;5.47;;;11.40;99.90;;;;;;4970150;28;20109;-89
2023/11/13 10:59:53;;;;;;;11.90;5.70;;;11.00;99.90;;;;;;4973457;28;20574;-91
2023/11/13 11:02:33;;;;;;;9.20;5.38;;;11.60;99.90;;;;;;4976404;28;20025;-90
2023/11/13 11:05:02;;;;;;;12.13;5.70;;;11.40;99.90;;;;;;4976515;28;20022;-88
2023/11/13 11:07:31;;;;;;;10.23;6.43;;;11.80;99.90;;;;;;4968201;28;20496;-89
2023/11/13 11:09:57;;;;;;;10.85;7.30;;;11.40;99.90;;;;;;4974341;28;20050;-90
2023/11/13 11:12:43;;;;;;;10.35;7.20;;;11.70;99.90;;;;;;4973453;28;20031;-88
2023/11/13 11:15:36;;;;;;;13.25;7.07;;;11.00;99.90;;;;;;4970987;28;20449;-89
2023/11/13 11:18:27;;;;;;;14.75;7.50;;;10.30;99.90;;;;;;4973170;28;20624;-89
2023/11/13 11:21:17;;;;;;;17.58;7.35;;;9.80;99.90;;;;;;4968041;28;20419;-85
2023/11/13 11:23:59;;;;;;;13.68;8.68;;;10.40;99.90;;;;;;4958061;28;20042;-87
2023/11/13 11:26:25;;;;;;;17.58;8.95;;;12.10;99.90;;;;;;4953307;28;20515;-85
2023/11/13 11:28:54;;;;;;;18.42;9.25;;;11.00;99.90;;;;;;4955658;28;20034;-87
2023/11/13 11:31:38;;;;;;;14.95;8.98;;;12.10;99.90;;;;;;4967611;28;20428;-87
2023/11/13 11:34:07;;;;;;;18.88;9.23;;;10.60;99.90;;;;;;4961299;28;20046;-87
2023/11/13 11:36:44;;;;;;;13.63;9.07;;;12.00;99.90;;;;;;4973288;28;20049;-87
2023/11/13 11:39:21;;;;;;;19.75;8.98;;;12.10;99.90;;;;;;4973195;28;20061;-86
2023/11/13 11:41:53;;;;;;;24.23;10.93;;;10.70;99.90;;;;;;4954482;28;20369;-86
2023/11/13 11:44:28;;;;;;;22.27;9.50;;;10.70;99.90;;;;;;4955922;28;20023;-86
2023/11/13 11:46:55;;;;;;;28.38;11.07;;;10.80;99.90;;;;;;4973104;28;20035;-87
2023/11/13 11:49:26;;;;;;;29.40;10.82;;;10.10;99.90;;;;;;4972067;28;20051;-85
2023/11/13 11:52:12;;;;;;;;;;;;;;;;;;;;;
2023/11/13 11:55:02;;;;;;;26.60;9.68;;;10.60;99.90;;;;;;4953332;28;20043;-90
2023/11/13 11:57:56;;;;;;;27.08;9.90;;;12.30;99.90;;;;;;4981190;28;20042;-90
2023/11/13 12:00:25;;;;;;;32.20;9.77;;;11.90;99.90;;;;;;4959464;28;20032;-90
2023/11/13 12:02:56;;;;;;;31.93;9.80;;;12.80;99.90;;;;;;4962335;28;20130;-89
2023/11/13 12:05:22;;;;;;;23.70;9.27;;;12.60;99.90;;;;;;4972090;28;20459;-87
2023/11/13 12:07:51;;;;;;;29.00;9.82;;;11.90;99.90;;;;;;4973274;28;20045;-90
2023/11/13 12:13:24;;;;;;;26.38;8.82;;;11.90;99.90;;;;;;4979973;28;20082;-91
2023/11/13 12:15:54;;;;;;;24.42;9.63;;;11.90;99.90;;;;;;4982192;28;20034;-92
2023/11/13 12:21:45;;;;;;;24.52;9.07;;;11.90;99.90;;;;;;4954440;28;20069;-88
2023/11/13 12:24:16;;;;;;;28.48;8.85;;;11.40;99.90;;;;;;4954861;28;20050;-90
2023/11/13 12:26:44;;;;;;;19.52;8.10;;;13.30;99.90;;;;;;4972804;28;20022;-88
2023/11/13 12:29:24;;;;;;;15.65;7.85;;;12.30;99.90;;;;;;4974395;28;20047;-85
2023/11/13 12:31:55;;;;;;;18.40;7.50;;;12.40;99.90;;;;;;4974166;28;20011;-93
2023/11/13 12:34:21;;;;;;;;;;;13.00;99.90;;;;;;4982523;28;20503;-89
2023/11/13 12:36:48;;;;;;;22.23;7.47;;;12.60;99.90;;;;;;4984197;28;19917;-91
2023/11/13 12:39:22;;;;;;;24.00;7.40;;;12.50;99.90;;;;;;4976984;28;20027;-90
2023/11/13 12:41:52;;;;;;;18.75;6.72;;;13.80;99.90;;;;;;4987740;28;20031;-90
2023/11/13 12:44:20;;;;;;;16.80;6.93;;;12.70;99.90;;;;;;4993387;28;20037;-89
2023/11/13 12:46:50;;;;;;;14.27;5.53;;;14.10;99.90;;;;;;4987509;28;20030;-88
2023/11/13 12:49:16;;;;;;;23.13;5.85;;;12.80;99.90;;;;;;4988694;28;20055;-87
2023/11/13 12:51:48;;;;;;;12.23;5.57;;;13.80;99.90;;;;;;4991636;28;20022;-88
2023/11/13 12:54:14;;;;;;;14.18;5.15;;;12.90;99.90;;;;;;4989208;28;20029;-88
2023/11/13 12:56:44;;;;;;;14.90;5.72;;;13.00;99.90;;;;;;4995667;28;20498;-88
2023/11/13 12:59:12;;;;;;;17.35;5.60;;;13.00;99.90;;;;;;4996518;28;20379;-88
2023/11/13 13:01:37;;;;;;;10.48;5.63;;;12.50;99.90;;;;;;4996518;28;20027;-87
2023/11/13 13:04:05;;;;;;;12.02;5.30;;;12.80;99.90;;;;;;4995568;28;20033;-87
2023/11/13 13:06:36;;;;;;;11.35;4.25;;;13.10;99.90;;;;;;4996000;28;20034;-88
2023/11/13 13:09:05;;;;;;;10.43;4.07;;;12.60;99.90;;;;;;4995994;28;20039;-88
2023/11/13 13:11:33;;;;;;;10.93;4.30;;;12.90;99.90;;;;;;4995842;28;20033;-88